sensor_id;sensor_type;location;lat;lon;timestamp;P1;durP1;ratioP1;P2;durP2;ratioP2
43297;SDS011;28892;55.640;37.532;2022-08-25T00:00:36;8.20;;;4.93;;
43297;SDS011;28892;55.640;37.532;2022-08-25T00:03:04;7.07;;;4.90;;
43297;SDS011;28892;55.640;37.532;2022-08-25T00:05:30;7.53;;;5.22;;
43297;SDS011;28892;55.640;37.532;2022-08-25T00:07:56;8.43;;;4.70;;
43297;SDS011;28892;55.640;37.532;2022-08-25T00:10:22;8.40;;;5.30;;
43297;SDS011;28892;55.640;37.532;2022-08-25T00:12:48;8.13;;;4.88;;
43297;SDS011;28892;55.640;37.532;2022-08-25T00:15:14;8.07;;;5.05;;
43297;SDS011;28892;55.640;37.532;2022-08-25T00:17:39;5.05;;;4.55;;
43297;SDS011;28892;55.640;37.532;2022-08-25T00:20:05;7.07;;;4.35;;
43297;SDS011;28892;55.640;37.532;2022-08-25T00:22:33;8.60;;;5.13;;
43297;SDS011;28892;55.640;37.532;2022-08-25T00:24:59;6.22;;;4.60;;
43297;SDS011;28892;55.640;37.532;2022-08-25T00:27:25;7.50;;;4.50;;
43297;SDS011;28892;55.640;37.532;2022-08-25T00:29:51;7.32;;;4.78;;
43297;SDS011;28892;55.640;37.532;2022-08-25T00:32:17;10.57;;;5.10;;
43297;SDS011;28892;55.640;37.532;2022-08-25T00:34:43;8.40;;;5.10;;
43297;SDS011;28892;55.640;37.532;2022-08-25T00:37:09;6.50;;;4.78;;
43297;SDS011;28892;55.640;37.532;2022-08-25T00:39:36;9.15;;;5.22;;
43297;SDS011;28892;55.640;37.532;2022-08-25T00:42:02;7.18;;;4.53;;
43297;SDS011;28892;55.640;37.532;2022-08-25T00:44:29;6.43;;;4.68;;
43297;SDS011;28892;55.640;37.532;2022-08-25T00:46:58;8.27;;;5.47;;
43297;SDS011;28892;55.640;37.532;2022-08-25T00:52:07;5.35;;;4.53;;
43297;SDS011;28892;55.640;37.532;2022-08-25T00:54:37;9.75;;;4.78;;
43297;SDS011;28892;55.640;37.532;2022-08-25T00:57:05;7.30;;;5.50;;
43297;SDS011;28892;55.640;37.532;2022-08-25T00:59:33;7.57;;;5.07;;
43297;SDS011;28892;55.640;37.532;2022-08-25T01:01:59;5.93;;;4.35;;
43297;SDS011;28892;55.640;37.532;2022-08-25T01:04:25;5.45;;;4.80;;
43297;SDS011;28892;55.640;37.532;2022-08-25T01:06:52;6.30;;;5.63;;
43297;SDS011;28892;55.640;37.532;2022-08-25T01:09:19;6.90;;;5.20;;
43297;SDS011;28892;55.640;37.532;2022-08-25T01:11:45;9.82;;;5.50;;
43297;SDS011;28892;55.640;37.532;2022-08-25T01:14:12;7.88;;;5.15;;
43297;SDS011;28892;55.640;37.532;2022-08-25T01:16:41;6.22;;;5.20;;
43297;SDS011;28892;55.640;37.532;2022-08-25T01:19:08;9.93;;;4.88;;
43297;SDS011;28892;55.640;37.532;2022-08-25T01:21:38;7.38;;;5.32;;
43297;SDS011;28892;55.640;37.532;2022-08-25T01:24:08;6.25;;;4.80;;
43297;SDS011;28892;55.640;37.532;2022-08-25T01:26:40;9.40;;;5.38;;
43297;SDS011;28892;55.640;37.532;2022-08-25T01:29:07;6.18;;;5.20;;
43297;SDS011;28892;55.640;37.532;2022-08-25T01:31:49;5.43;;;4.70;;
43297;SDS011;28892;55.640;37.532;2022-08-25T01:34:26;5.57;;;4.57;;
43297;SDS011;28892;55.640;37.532;2022-08-25T01:36:54;6.68;;;4.70;;
43297;SDS011;28892;55.640;37.532;2022-08-25T01:39:22;7.82;;;4.90;;
43297;SDS011;28892;55.640;37.532;2022-08-25T01:41:53;10.82;;;5.03;;
43297;SDS011;28892;55.640;37.532;2022-08-25T01:44:30;6.07;;;5.05;;
43297;SDS011;28892;55.640;37.532;2022-08-25T01:46:57;6.13;;;5.53;;
43297;SDS011;28892;55.640;37.532;2022-08-25T01:49:23;7.00;;;5.15;;
43297;SDS011;28892;55.640;37.532;2022-08-25T01:51:55;8.48;;;5.38;;
43297;SDS011;28892;55.640;37.532;2022-08-25T01:54:24;7.82;;;5.00;;
43297;SDS011;28892;55.640;37.532;2022-08-25T01:56:50;6.57;;;5.22;;
43297;SDS011;28892;55.640;37.532;2022-08-25T01:59:17;7.65;;;5.15;;
43297;SDS011;28892;55.640;37.532;2022-08-25T02:01:44;7.93;;;5.38;;
43297;SDS011;28892;55.640;37.532;2022-08-25T02:04:10;7.30;;;5.38;;
43297;SDS011;28892;55.640;37.532;2022-08-25T02:06:36;7.20;;;5.72;;
43297;SDS011;28892;55.640;37.532;2022-08-25T02:09:05;6.63;;;5.43;;
43297;SDS011;28892;55.640;37.532;2022-08-25T02:11:38;7.60;;;5.47;;
43297;SDS011;28892;55.640;37.532;2022-08-25T02:14:06;16.98;;;6.13;;
43297;SDS011;28892;55.640;37.532;2022-08-25T02:16:35;7.90;;;5.72;;
43297;SDS011;28892;55.640;37.532;2022-08-25T02:19:03;9.05;;;5.80;;
43297;SDS011;28892;55.640;37.532;2022-08-25T02:21:31;7.93;;;6.00;;
43297;SDS011;28892;55.640;37.532;2022-08-25T02:23:57;6.55;;;5.53;;
43297;SDS011;28892;55.640;37.532;2022-08-25T02:26:22;8.60;;;6.32;;
43297;SDS011;28892;55.640;37.532;2022-08-25T02:28:49;9.48;;;6.13;;
43297;SDS011;28892;55.640;37.532;2022-08-25T02:31:16;8.93;;;6.13;;
43297;SDS011;28892;55.640;37.532;2022-08-25T02:33:44;8.52;;;6.03;;
43297;SDS011;28892;55.640;37.532;2022-08-25T02:36:11;9.70;;;6.35;;
43297;SDS011;28892;55.640;37.532;2022-08-25T02:38:37;8.77;;;6.15;;
43297;SDS011;28892;55.640;37.532;2022-08-25T02:41:08;9.25;;;6.38;;
43297;SDS011;28892;55.640;37.532;2022-08-25T02:43:46;9.80;;;5.88;;
43297;SDS011;28892;55.640;37.532;2022-08-25T02:46:13;8.43;;;6.47;;
43297;SDS011;28892;55.640;37.532;2022-08-25T02:48:40;7.13;;;6.18;;
43297;SDS011;28892;55.640;37.532;2022-08-25T02:51:08;9.77;;;6.38;;
43297;SDS011;28892;55.640;37.532;2022-08-25T02:53:35;9.43;;;6.20;;
43297;SDS011;28892;55.640;37.532;2022-08-25T02:56:06;8.60;;;5.90;;
43297;SDS011;28892;55.640;37.532;2022-08-25T02:58:34;6.97;;;5.65;;
43297;SDS011;28892;55.640;37.532;2022-08-25T03:01:00;9.27;;;5.97;;
43297;SDS011;28892;55.640;37.532;2022-08-25T03:03:26;10.27;;;5.82;;
43297;SDS011;28892;55.640;37.532;2022-08-25T03:05:52;8.25;;;6.25;;
43297;SDS011;28892;55.640;37.532;2022-08-25T03:08:19;8.90;;;6.13;;
43297;SDS011;28892;55.640;37.532;2022-08-25T03:10:45;9.70;;;5.70;;
43297;SDS011;28892;55.640;37.532;2022-08-25T03:13:11;5.93;;;5.32;;
43297;SDS011;28892;55.640;37.532;2022-08-25T03:15:36;6.43;;;5.82;;
43297;SDS011;28892;55.640;37.532;2022-08-25T03:18:03;7.20;;;5.88;;
43297;SDS011;28892;55.640;37.532;2022-08-25T03:20:30;8.40;;;6.13;;
43297;SDS011;28892;55.640;37.532;2022-08-25T03:22:55;7.28;;;6.40;;
43297;SDS011;28892;55.640;37.532;2022-08-25T03:25:21;8.27;;;7.32;;
43297;SDS011;28892;55.640;37.532;2022-08-25T03:28:06;8.35;;;7.03;;
43297;SDS011;28892;55.640;37.532;2022-08-25T03:30:32;8.00;;;7.00;;
43297;SDS011;28892;55.640;37.532;2022-08-25T03:32:59;8.38;;;7.15;;
43297;SDS011;28892;55.640;37.532;2022-08-25T03:35:24;8.45;;;6.82;;
43297;SDS011;28892;55.640;37.532;2022-08-25T03:37:53;7.43;;;6.65;;
43297;SDS011;28892;55.640;37.532;2022-08-25T03:40:20;9.45;;;7.07;;
43297;SDS011;28892;55.640;37.532;2022-08-25T03:42:47;8.70;;;6.90;;
43297;SDS011;28892;55.640;37.532;2022-08-25T03:45:13;8.80;;;7.20;;
43297;SDS011;28892;55.640;37.532;2022-08-25T03:47:41;10.10;;;7.43;;
43297;SDS011;28892;55.640;37.532;2022-08-25T03:50:11;9.07;;;8.23;;
43297;SDS011;28892;55.640;37.532;2022-08-25T03:52:38;9.77;;;7.82;;
43297;SDS011;28892;55.640;37.532;2022-08-25T03:55:04;12.52;;;10.52;;
43297;SDS011;28892;55.640;37.532;2022-08-25T03:57:32;12.27;;;11.07;;
43297;SDS011;28892;55.640;37.532;2022-08-25T03:59:57;13.98;;;12.55;;
43297;SDS011;28892;55.640;37.532;2022-08-25T04:02:23;13.77;;;11.38;;
43297;SDS011;28892;55.640;37.532;2022-08-25T04:04:49;14.60;;;13.20;;
43297;SDS011;28892;55.640;37.532;2022-08-25T04:07:15;17.33;;;15.75;;
43297;SDS011;28892;55.640;37.532;2022-08-25T04:09:41;16.02;;;14.55;;
43297;SDS011;28892;55.640;37.532;2022-08-25T04:12:07;19.75;;;16.90;;
43297;SDS011;28892;55.640;37.532;2022-08-25T04:14:33;16.42;;;14.70;;
43297;SDS011;28892;55.640;37.532;2022-08-25T04:16:59;16.05;;;13.90;;
43297;SDS011;28892;55.640;37.532;2022-08-25T04:19:25;15.10;;;12.18;;
43297;SDS011;28892;55.640;37.532;2022-08-25T04:21:50;11.93;;;10.82;;
43297;SDS011;28892;55.640;37.532;2022-08-25T04:24:17;11.38;;;9.70;;
43297;SDS011;28892;55.640;37.532;2022-08-25T04:26:44;9.88;;;8.85;;
43297;SDS011;28892;55.640;37.532;2022-08-25T04:29:13;11.68;;;8.60;;
43297;SDS011;28892;55.640;37.532;2022-08-25T04:31:41;12.68;;;8.48;;
43297;SDS011;28892;55.640;37.532;2022-08-25T04:34:11;9.60;;;8.05;;
43297;SDS011;28892;55.640;37.532;2022-08-25T04:36:37;10.68;;;7.35;;
43297;SDS011;28892;55.640;37.532;2022-08-25T04:39:06;11.90;;;7.65;;
43297;SDS011;28892;55.640;37.532;2022-08-25T04:41:32;10.77;;;7.65;;
43297;SDS011;28892;55.640;37.532;2022-08-25T04:43:59;9.93;;;8.20;;
43297;SDS011;28892;55.640;37.532;2022-08-25T04:46:27;11.93;;;7.13;;
43297;SDS011;28892;55.640;37.532;2022-08-25T04:48:57;12.07;;;9.82;;
43297;SDS011;28892;55.640;37.532;2022-08-25T04:51:25;11.48;;;10.07;;
43297;SDS011;28892;55.640;37.532;2022-08-25T04:54:03;13.82;;;10.25;;
43297;SDS011;28892;55.640;37.532;2022-08-25T04:56:31;12.88;;;11.52;;
43297;SDS011;28892;55.640;37.532;2022-08-25T04:59:04;12.88;;;9.38;;
43297;SDS011;28892;55.640;37.532;2022-08-25T05:01:33;14.52;;;9.88;;
43297;SDS011;28892;55.640;37.532;2022-08-25T05:03:59;13.63;;;9.27;;
43297;SDS011;28892;55.640;37.532;2022-08-25T05:06:27;10.20;;;8.43;;
43297;SDS011;28892;55.640;37.532;2022-08-25T05:08:54;12.13;;;8.52;;
43297;SDS011;28892;55.640;37.532;2022-08-25T05:11:24;13.80;;;7.30;;
43297;SDS011;28892;55.640;37.532;2022-08-25T05:13:51;11.73;;;7.95;;
43297;SDS011;28892;55.640;37.532;2022-08-25T05:16:19;7.88;;;7.15;;
43297;SDS011;28892;55.640;37.532;2022-08-25T05:18:46;9.60;;;7.47;;
43297;SDS011;28892;55.640;37.532;2022-08-25T05:21:13;9.65;;;6.75;;
43297;SDS011;28892;55.640;37.532;2022-08-25T05:23:41;8.77;;;6.90;;
43297;SDS011;28892;55.640;37.532;2022-08-25T05:26:09;7.85;;;7.05;;
43297;SDS011;28892;55.640;37.532;2022-08-25T05:28:38;11.05;;;7.50;;
43297;SDS011;28892;55.640;37.532;2022-08-25T05:31:09;9.30;;;6.63;;
43297;SDS011;28892;55.640;37.532;2022-08-25T05:33:36;8.18;;;7.32;;
43297;SDS011;28892;55.640;37.532;2022-08-25T05:36:04;9.85;;;6.93;;
43297;SDS011;28892;55.640;37.532;2022-08-25T05:38:30;9.10;;;6.80;;
43297;SDS011;28892;55.640;37.532;2022-08-25T05:40:57;7.35;;;6.65;;
43297;SDS011;28892;55.640;37.532;2022-08-25T05:43:23;8.30;;;6.60;;
43297;SDS011;28892;55.640;37.532;2022-08-25T05:45:51;7.13;;;6.43;;
43297;SDS011;28892;55.640;37.532;2022-08-25T05:48:19;8.60;;;6.75;;
43297;SDS011;28892;55.640;37.532;2022-08-25T05:50:54;7.90;;;6.60;;
43297;SDS011;28892;55.640;37.532;2022-08-25T05:53:22;9.15;;;6.90;;
43297;SDS011;28892;55.640;37.532;2022-08-25T05:55:49;8.52;;;6.60;;
43297;SDS011;28892;55.640;37.532;2022-08-25T05:58:16;11.05;;;6.22;;
43297;SDS011;28892;55.640;37.532;2022-08-25T06:00:42;9.68;;;6.57;;
43297;SDS011;28892;55.640;37.532;2022-08-25T06:03:09;6.90;;;6.00;;
43297;SDS011;28892;55.640;37.532;2022-08-25T06:05:35;6.35;;;5.80;;
43297;SDS011;28892;55.640;37.532;2022-08-25T06:08:00;7.45;;;6.07;;
43297;SDS011;28892;55.640;37.532;2022-08-25T06:10:26;9.10;;;5.78;;
43297;SDS011;28892;55.640;37.532;2022-08-25T06:12:52;8.20;;;5.93;;
43297;SDS011;28892;55.640;37.532;2022-08-25T06:15:20;6.90;;;5.88;;
43297;SDS011;28892;55.640;37.532;2022-08-25T06:17:47;8.57;;;5.55;;
43297;SDS011;28892;55.640;37.532;2022-08-25T06:20:15;8.40;;;5.95;;
43297;SDS011;28892;55.640;37.532;2022-08-25T06:22:46;9.48;;;5.75;;
43297;SDS011;28892;55.640;37.532;2022-08-25T06:25:13;8.63;;;5.80;;
43297;SDS011;28892;55.640;37.532;2022-08-25T06:27:41;6.10;;;5.57;;
43297;SDS011;28892;55.640;37.532;2022-08-25T06:30:07;9.35;;;5.60;;
43297;SDS011;28892;55.640;37.532;2022-08-25T06:32:36;7.55;;;5.50;;
43297;SDS011;28892;55.640;37.532;2022-08-25T06:35:04;8.23;;;5.65;;
43297;SDS011;28892;55.640;37.532;2022-08-25T06:37:31;10.02;;;5.80;;
43297;SDS011;28892;55.640;37.532;2022-08-25T06:39:57;7.88;;;5.85;;
43297;SDS011;28892;55.640;37.532;2022-08-25T06:42:22;9.90;;;6.38;;
43297;SDS011;28892;55.640;37.532;2022-08-25T06:44:48;10.75;;;5.90;;
43297;SDS011;28892;55.640;37.532;2022-08-25T06:47:14;9.60;;;6.05;;
43297;SDS011;28892;55.640;37.532;2022-08-25T06:49:43;9.13;;;5.70;;
43297;SDS011;28892;55.640;37.532;2022-08-25T06:52:09;10.35;;;5.93;;
43297;SDS011;28892;55.640;37.532;2022-08-25T06:54:36;8.82;;;5.97;;
43297;SDS011;28892;55.640;37.532;2022-08-25T06:57:02;11.23;;;5.85;;
43297;SDS011;28892;55.640;37.532;2022-08-25T06:59:28;8.60;;;5.60;;
43297;SDS011;28892;55.640;37.532;2022-08-25T07:01:54;8.18;;;5.85;;
43297;SDS011;28892;55.640;37.532;2022-08-25T07:04:19;8.77;;;5.90;;
43297;SDS011;28892;55.640;37.532;2022-08-25T07:06:45;8.77;;;5.97;;
43297;SDS011;28892;55.640;37.532;2022-08-25T07:09:11;6.53;;;5.82;;
43297;SDS011;28892;55.640;37.532;2022-08-25T07:11:38;9.25;;;6.05;;
43297;SDS011;28892;55.640;37.532;2022-08-25T07:14:05;10.07;;;6.28;;
43297;SDS011;28892;55.640;37.532;2022-08-25T07:16:41;8.73;;;6.25;;
43297;SDS011;28892;55.640;37.532;2022-08-25T07:19:10;8.23;;;6.05;;
43297;SDS011;28892;55.640;37.532;2022-08-25T07:21:36;9.48;;;6.00;;
43297;SDS011;28892;55.640;37.532;2022-08-25T07:24:04;10.15;;;5.70;;
43297;SDS011;28892;55.640;37.532;2022-08-25T07:26:32;8.15;;;5.57;;
43297;SDS011;28892;55.640;37.532;2022-08-25T07:29:22;9.05;;;5.75;;
43297;SDS011;28892;55.640;37.532;2022-08-25T07:31:50;5.93;;;5.30;;
43297;SDS011;28892;55.640;37.532;2022-08-25T07:34:16;11.77;;;5.55;;
43297;SDS011;28892;55.640;37.532;2022-08-25T07:37:00;7.88;;;5.78;;
43297;SDS011;28892;55.640;37.532;2022-08-25T07:39:29;6.05;;;5.13;;
43297;SDS011;28892;55.640;37.532;2022-08-25T07:41:55;11.65;;;6.53;;
43297;SDS011;28892;55.640;37.532;2022-08-25T07:44:21;7.45;;;5.90;;
43297;SDS011;28892;55.640;37.532;2022-08-25T07:46:48;9.90;;;5.70;;
43297;SDS011;28892;55.640;37.532;2022-08-25T07:49:15;6.43;;;5.40;;
43297;SDS011;28892;55.640;37.532;2022-08-25T07:51:42;8.05;;;5.00;;
43297;SDS011;28892;55.640;37.532;2022-08-25T07:54:09;7.55;;;5.53;;
43297;SDS011;28892;55.640;37.532;2022-08-25T07:56:34;6.22;;;5.38;;
43297;SDS011;28892;55.640;37.532;2022-08-25T07:59:00;7.82;;;5.18;;
43297;SDS011;28892;55.640;37.532;2022-08-25T08:01:25;6.90;;;5.45;;
43297;SDS011;28892;55.640;37.532;2022-08-25T08:03:51;6.68;;;5.85;;
43297;SDS011;28892;55.640;37.532;2022-08-25T08:06:18;10.30;;;5.95;;
43297;SDS011;28892;55.640;37.532;2022-08-25T08:08:47;7.32;;;5.40;;
43297;SDS011;28892;55.640;37.532;2022-08-25T08:11:15;6.32;;;5.15;;
43297;SDS011;28892;55.640;37.532;2022-08-25T08:13:53;7.90;;;5.70;;
43297;SDS011;28892;55.640;37.532;2022-08-25T08:16:20;9.52;;;5.65;;
43297;SDS011;28892;55.640;37.532;2022-08-25T08:18:47;6.30;;;5.45;;
43297;SDS011;28892;55.640;37.532;2022-08-25T08:21:18;7.07;;;5.32;;
43297;SDS011;28892;55.640;37.532;2022-08-25T08:23:49;8.50;;;5.63;;
43297;SDS011;28892;55.640;37.532;2022-08-25T08:26:16;8.30;;;6.00;;
43297;SDS011;28892;55.640;37.532;2022-08-25T08:28:42;10.57;;;6.25;;
43297;SDS011;28892;55.640;37.532;2022-08-25T08:31:08;7.10;;;5.70;;
43297;SDS011;28892;55.640;37.532;2022-08-25T08:33:34;7.18;;;5.63;;
43297;SDS011;28892;55.640;37.532;2022-08-25T08:38:27;7.25;;;5.78;;
43297;SDS011;28892;55.640;37.532;2022-08-25T08:41:04;7.32;;;5.88;;
43297;SDS011;28892;55.640;37.532;2022-08-25T08:44:14;6.90;;;5.97;;
43297;SDS011;28892;55.640;37.532;2022-08-25T08:50:02;6.85;;;6.07;;
43297;SDS011;28892;55.640;37.532;2022-08-25T08:52:40;7.97;;;5.97;;
43297;SDS011;28892;55.640;37.532;2022-08-25T08:55:10;6.35;;;5.72;;
43297;SDS011;28892;55.640;37.532;2022-08-25T08:57:51;10.95;;;6.15;;
43297;SDS011;28892;55.640;37.532;2022-08-25T09:00:21;7.43;;;6.47;;
43297;SDS011;28892;55.640;37.532;2022-08-25T09:02:50;8.43;;;6.68;;
43297;SDS011;28892;55.640;37.532;2022-08-25T09:05:23;7.80;;;6.03;;
43297;SDS011;28892;55.640;37.532;2022-08-25T09:07:53;7.95;;;5.50;;
43297;SDS011;28892;55.640;37.532;2022-08-25T09:10:22;9.85;;;5.70;;
43297;SDS011;28892;55.640;37.532;2022-08-25T09:13:40;8.40;;;5.60;;
43297;SDS011;28892;55.640;37.532;2022-08-25T09:15:56;5.70;;;4.80;;
43297;SDS011;28892;55.640;37.532;2022-08-25T09:21:56;6.65;;;5.00;;
43297;SDS011;28892;55.640;37.532;2022-08-25T09:29:58;9.40;;;6.35;;
43297;SDS011;28892;55.640;37.532;2022-08-25T09:32:26;8.18;;;5.80;;
43297;SDS011;28892;55.640;37.532;2022-08-25T09:34:54;5.53;;;4.68;;
43297;SDS011;28892;55.640;37.532;2022-08-25T09:37:21;8.48;;;5.53;;
43297;SDS011;28892;55.640;37.532;2022-08-25T09:39:48;8.13;;;5.18;;
43297;SDS011;28892;55.640;37.532;2022-08-25T09:42:14;5.93;;;4.88;;
43297;SDS011;28892;55.640;37.532;2022-08-25T09:44:41;9.20;;;5.40;;
43297;SDS011;28892;55.640;37.532;2022-08-25T09:52:15;7.47;;;5.90;;
43297;SDS011;28892;55.640;37.532;2022-08-25T09:54:43;8.85;;;5.97;;
43297;SDS011;28892;55.640;37.532;2022-08-25T09:57:08;10.00;;;5.60;;
43297;SDS011;28892;55.640;37.532;2022-08-25T10:00:09;7.30;;;5.50;;
43297;SDS011;28892;55.640;37.532;2022-08-25T10:02:38;8.90;;;5.75;;
43297;SDS011;28892;55.640;37.532;2022-08-25T10:05:23;9.45;;;5.90;;
43297;SDS011;28892;55.640;37.532;2022-08-25T10:07:55;6.70;;;6.10;;
43297;SDS011;28892;55.640;37.532;2022-08-25T10:10:26;7.43;;;5.93;;
43297;SDS011;28892;55.640;37.532;2022-08-25T10:12:57;8.27;;;6.10;;
43297;SDS011;28892;55.640;37.532;2022-08-25T10:15:27;6.30;;;5.50;;
43297;SDS011;28892;55.640;37.532;2022-08-25T10:20:39;10.90;;;5.63;;
43297;SDS011;28892;55.640;37.532;2022-08-25T10:23:10;6.32;;;5.38;;
43297;SDS011;28892;55.640;37.532;2022-08-25T10:25:44;8.25;;;5.57;;
43297;SDS011;28892;55.640;37.532;2022-08-25T10:39:16;5.68;;;5.18;;
43297;SDS011;28892;55.640;37.532;2022-08-25T10:41:58;9.65;;;6.03;;
43297;SDS011;28892;55.640;37.532;2022-08-25T10:44:50;6.13;;;5.53;;
43297;SDS011;28892;55.640;37.532;2022-08-25T10:50:26;6.10;;;5.50;;
43297;SDS011;28892;55.640;37.532;2022-08-25T11:03:59;6.35;;;5.75;;
43297;SDS011;28892;55.640;37.532;2022-08-25T11:07:19;7.85;;;5.75;;
43297;SDS011;28892;55.640;37.532;2022-08-25T11:09:28;6.97;;;5.70;;
43297;SDS011;28892;55.640;37.532;2022-08-25T11:12:07;10.25;;;6.25;;
43297;SDS011;28892;55.640;37.532;2022-08-25T11:14:40;9.88;;;6.20;;
43297;SDS011;28892;55.640;37.532;2022-08-25T11:17:18;8.90;;;6.38;;
43297;SDS011;28892;55.640;37.532;2022-08-25T11:19:50;10.60;;;5.90;;
43297;SDS011;28892;55.640;37.532;2022-08-25T11:30:22;9.70;;;6.10;;
43297;SDS011;28892;55.640;37.532;2022-08-25T11:32:49;8.93;;;5.80;;
43297;SDS011;28892;55.640;37.532;2022-08-25T11:35:18;9.95;;;6.45;;
43297;SDS011;28892;55.640;37.532;2022-08-25T11:38:09;6.57;;;5.82;;
43297;SDS011;28892;55.640;37.532;2022-08-25T11:46:24;10.23;;;6.10;;
43297;SDS011;28892;55.640;37.532;2022-08-25T11:51:41;7.72;;;5.95;;
43297;SDS011;28892;55.640;37.532;2022-08-25T11:57:03;11.02;;;6.22;;
43297;SDS011;28892;55.640;37.532;2022-08-25T12:02:36;9.75;;;6.35;;
43297;SDS011;28892;55.640;37.532;2022-08-25T12:32:51;6.38;;;5.55;;
43297;SDS011;28892;55.640;37.532;2022-08-25T12:41:16;8.38;;;6.35;;
43297;SDS011;28892;55.640;37.532;2022-08-25T12:43:47;9.80;;;6.20;;
43297;SDS011;28892;55.640;37.532;2022-08-25T12:57:56;6.75;;;5.97;;
43297;SDS011;28892;55.640;37.532;2022-08-25T12:59:57;7.82;;;5.82;;
43297;SDS011;28892;55.640;37.532;2022-08-25T13:07:52;7.80;;;6.35;;
43297;SDS011;28892;55.640;37.532;2022-08-25T13:16:04;8.13;;;6.20;;
43297;SDS011;28892;55.640;37.532;2022-08-25T13:18:33;8.25;;;6.45;;
43297;SDS011;28892;55.640;37.532;2022-08-25T13:21:12;10.70;;;6.65;;
43297;SDS011;28892;55.640;37.532;2022-08-25T13:23:43;7.55;;;6.20;;
43297;SDS011;28892;55.640;37.532;2022-08-25T13:26:15;6.78;;;6.18;;
43297;SDS011;28892;55.640;37.532;2022-08-25T13:28:57;7.13;;;5.72;;
43297;SDS011;28892;55.640;37.532;2022-08-25T13:31:24;7.47;;;6.20;;
43297;SDS011;28892;55.640;37.532;2022-08-25T13:33:57;8.07;;;6.30;;
43297;SDS011;28892;55.640;37.532;2022-08-25T13:36:27;8.20;;;6.30;;
43297;SDS011;28892;55.640;37.532;2022-08-25T13:39:14;8.80;;;6.18;;
43297;SDS011;28892;55.640;37.532;2022-08-25T13:41:46;7.30;;;6.07;;
43297;SDS011;28892;55.640;37.532;2022-08-25T13:44:15;7.07;;;6.35;;
43297;SDS011;28892;55.640;37.532;2022-08-25T13:46:42;8.07;;;6.53;;
43297;SDS011;28892;55.640;37.532;2022-08-25T13:49:10;7.07;;;6.15;;
43297;SDS011;28892;55.640;37.532;2022-08-25T13:51:37;7.85;;;5.97;;
43297;SDS011;28892;55.640;37.532;2022-08-25T13:54:07;7.53;;;6.50;;
43297;SDS011;28892;55.640;37.532;2022-08-25T13:56:53;7.70;;;6.60;;
43297;SDS011;28892;55.640;37.532;2022-08-25T13:59:25;7.28;;;6.20;;
43297;SDS011;28892;55.640;37.532;2022-08-25T14:01:58;8.70;;;5.90;;
43297;SDS011;28892;55.640;37.532;2022-08-25T14:10:05;9.15;;;6.60;;
43297;SDS011;28892;55.640;37.532;2022-08-25T14:20:03;9.98;;;6.82;;
43297;SDS011;28892;55.640;37.532;2022-08-25T14:22:30;7.00;;;6.30;;
43297;SDS011;28892;55.640;37.532;2022-08-25T14:24:56;7.72;;;6.80;;
43297;SDS011;28892;55.640;37.532;2022-08-25T14:27:22;8.30;;;6.90;;
43297;SDS011;28892;55.640;37.532;2022-08-25T14:29:47;9.07;;;6.25;;
43297;SDS011;28892;55.640;37.532;2022-08-25T14:32:14;8.30;;;6.60;;
43297;SDS011;28892;55.640;37.532;2022-08-25T14:34:41;8.32;;;6.50;;
43297;SDS011;28892;55.640;37.532;2022-08-25T14:37:08;6.75;;;6.05;;
43297;SDS011;28892;55.640;37.532;2022-08-25T14:39:37;8.40;;;6.05;;
43297;SDS011;28892;55.640;37.532;2022-08-25T14:42:03;6.63;;;6.00;;
43297;SDS011;28892;55.640;37.532;2022-08-25T14:44:29;9.05;;;6.07;;
43297;SDS011;28892;55.640;37.532;2022-08-25T14:46:55;6.70;;;6.15;;
43297;SDS011;28892;55.640;37.532;2022-08-25T14:49:26;7.93;;;6.85;;
43297;SDS011;28892;55.640;37.532;2022-08-25T14:54:48;7.78;;;6.35;;
43297;SDS011;28892;55.640;37.532;2022-08-25T14:57:14;7.13;;;6.43;;
43297;SDS011;28892;55.640;37.532;2022-08-25T14:59:41;10.48;;;6.60;;
43297;SDS011;28892;55.640;37.532;2022-08-25T15:02:07;7.50;;;6.20;;
43297;SDS011;28892;55.640;37.532;2022-08-25T15:04:34;7.90;;;6.68;;
43297;SDS011;28892;55.640;37.532;2022-08-25T15:07:00;10.18;;;6.65;;
43297;SDS011;28892;55.640;37.532;2022-08-25T15:09:46;7.53;;;6.53;;
43297;SDS011;28892;55.640;37.532;2022-08-25T15:12:12;8.32;;;6.53;;
43297;SDS011;28892;55.640;37.532;2022-08-25T15:14:39;9.30;;;6.53;;
43297;SDS011;28892;55.640;37.532;2022-08-25T15:17:04;8.88;;;6.88;;
43297;SDS011;28892;55.640;37.532;2022-08-25T15:19:32;14.80;;;7.95;;
43297;SDS011;28892;55.640;37.532;2022-08-25T15:21:58;10.25;;;6.68;;
43297;SDS011;28892;55.640;37.532;2022-08-25T15:24:25;10.75;;;6.68;;
43297;SDS011;28892;55.640;37.532;2022-08-25T15:26:53;7.70;;;6.80;;
43297;SDS011;28892;55.640;37.532;2022-08-25T15:29:21;9.35;;;7.15;;
43297;SDS011;28892;55.640;37.532;2022-08-25T15:31:48;9.85;;;6.70;;
43297;SDS011;28892;55.640;37.532;2022-08-25T15:34:15;9.35;;;6.60;;
43297;SDS011;28892;55.640;37.532;2022-08-25T15:36:40;9.70;;;6.57;;
43297;SDS011;28892;55.640;37.532;2022-08-25T15:39:07;10.15;;;6.53;;
43297;SDS011;28892;55.640;37.532;2022-08-25T15:41:34;7.57;;;6.78;;
43297;SDS011;28892;55.640;37.532;2022-08-25T15:44:02;9.75;;;7.03;;
43297;SDS011;28892;55.640;37.532;2022-08-25T15:46:30;8.48;;;6.57;;
43297;SDS011;28892;55.640;37.532;2022-08-25T15:48:57;7.65;;;6.85;;
43297;SDS011;28892;55.640;37.532;2022-08-25T15:51:24;8.85;;;7.05;;
43297;SDS011;28892;55.640;37.532;2022-08-25T15:53:51;7.80;;;7.00;;
43297;SDS011;28892;55.640;37.532;2022-08-25T15:56:17;9.57;;;6.60;;
43297;SDS011;28892;55.640;37.532;2022-08-25T15:58:44;9.30;;;7.07;;
43297;SDS011;28892;55.640;37.532;2022-08-25T16:01:15;8.43;;;6.75;;
43297;SDS011;28892;55.640;37.532;2022-08-25T16:03:43;8.40;;;6.47;;
43297;SDS011;28892;55.640;37.532;2022-08-25T16:06:09;9.70;;;7.18;;
43297;SDS011;28892;55.640;37.532;2022-08-25T16:08:35;10.50;;;7.10;;
43297;SDS011;28892;55.640;37.532;2022-08-25T16:11:03;8.38;;;6.90;;
43297;SDS011;28892;55.640;37.532;2022-08-25T16:13:29;12.73;;;7.30;;
43297;SDS011;28892;55.640;37.532;2022-08-25T16:15:57;10.20;;;7.38;;
43297;SDS011;28892;55.640;37.532;2022-08-25T16:18:23;8.15;;;6.50;;
43297;SDS011;28892;55.640;37.532;2022-08-25T16:20:50;12.32;;;6.90;;
43297;SDS011;28892;55.640;37.532;2022-08-25T16:23:16;10.57;;;7.05;;
43297;SDS011;28892;55.640;37.532;2022-08-25T16:25:44;11.00;;;7.35;;
43297;SDS011;28892;55.640;37.532;2022-08-25T16:28:11;10.00;;;7.70;;
43297;SDS011;28892;55.640;37.532;2022-08-25T16:30:38;11.55;;;8.07;;
43297;SDS011;28892;55.640;37.532;2022-08-25T16:33:08;11.52;;;7.97;;
43297;SDS011;28892;55.640;37.532;2022-08-25T16:35:34;13.48;;;7.65;;
43297;SDS011;28892;55.640;37.532;2022-08-25T16:37:59;11.63;;;8.35;;
43297;SDS011;28892;55.640;37.532;2022-08-25T16:40:26;13.55;;;8.75;;
43297;SDS011;28892;55.640;37.532;2022-08-25T16:42:52;16.67;;;9.35;;
43297;SDS011;28892;55.640;37.532;2022-08-25T16:45:19;11.98;;;8.00;;
43297;SDS011;28892;55.640;37.532;2022-08-25T16:47:46;10.55;;;8.00;;
43297;SDS011;28892;55.640;37.532;2022-08-25T16:50:12;18.65;;;9.68;;
43297;SDS011;28892;55.640;37.532;2022-08-25T16:52:39;10.65;;;7.85;;
43297;SDS011;28892;55.640;37.532;2022-08-25T16:55:24;13.63;;;8.48;;
43297;SDS011;28892;55.640;37.532;2022-08-25T16:57:51;15.13;;;8.95;;
43297;SDS011;28892;55.640;37.532;2022-08-25T17:00:20;13.55;;;8.77;;
43297;SDS011;28892;55.640;37.532;2022-08-25T17:02:59;13.90;;;8.93;;
43297;SDS011;28892;55.640;37.532;2022-08-25T17:05:29;15.60;;;8.80;;